createdAt,value
2022-11-30T00:00:55.660Z,6.52
2022-11-30T00:03:23.038Z,6.53
2022-11-30T00:05:50.623Z,6.55
2022-11-30T00:08:17.492Z,6.57
2022-11-30T00:10:44.482Z,6.57
2022-11-30T00:13:11.363Z,6.57
2022-11-30T00:15:38.264Z,6.57
2022-11-30T00:18:05.114Z,6.53
2022-11-30T00:20:31.923Z,6.55
2022-11-30T00:22:58.826Z,6.52
2022-11-30T00:25:25.783Z,6.52
2022-11-30T00:27:52.892Z,6.45
2022-11-30T00:30:19.745Z,6.47
2022-11-30T00:32:46.570Z,6.43
2022-11-30T00:35:13.375Z,6.42
2022-11-30T00:37:40.218Z,6.43
2022-11-30T00:40:07.298Z,6.43
2022-11-30T00:42:34.077Z,6.45
2022-11-30T00:45:00.851Z,6.40
2022-11-30T00:47:27.645Z,6.37
2022-11-30T00:49:54.465Z,6.42
2022-11-30T00:52:21.267Z,6.39
2022-11-30T00:54:48.218Z,6.44
2022-11-30T00:57:15.274Z,6.47
2022-11-30T00:59:42.031Z,6.49
2022-11-30T01:02:08.926Z,6.52
2022-11-30T01:04:35.872Z,6.54
2022-11-30T01:07:02.700Z,6.56
2022-11-30T01:09:29.525Z,6.56
2022-11-30T01:11:56.376Z,6.59
2022-11-30T01:14:23.201Z,6.54
2022-11-30T01:16:55.916Z,6.53
2022-11-30T01:19:23.735Z,6.53
2022-11-30T01:21:50.544Z,6.50
2022-11-30T01:24:17.348Z,6.54
2022-11-30T01:26:44.498Z,6.51
2022-11-30T01:29:11.288Z,6.48
2022-11-30T01:31:38.055Z,6.44
2022-11-30T01:34:04.877Z,6.45
2022-11-30T01:36:31.977Z,6.46
2022-11-30T01:38:58.856Z,6.49
2022-11-30T01:41:25.610Z,6.49
2022-11-30T01:43:53.986Z,6.44
2022-11-30T01:46:39.151Z,6.42
2022-11-30T01:49:10.168Z,6.42
2022-11-30T01:51:40.036Z,6.36
2022-11-30T01:54:08.681Z,6.33
2022-11-30T01:56:36.255Z,6.35
2022-11-30T01:59:03.232Z,6.32
2022-11-30T02:01:30.327Z,6.34
2022-11-30T02:04:03.108Z,6.37
2022-11-30T02:06:29.989Z,6.38
2022-11-30T02:08:56.886Z,6.38
2022-11-30T02:11:24.096Z,6.38
2022-11-30T02:13:53.678Z,6.42
2022-11-30T02:16:35.969Z,6.40
2022-11-30T02:19:02.864Z,6.38
2022-11-30T02:21:54.389Z,6.42
2022-11-30T02:24:26.974Z,6.47
2022-11-30T02:27:09.389Z,6.49
2022-11-30T02:29:36.147Z,6.52
2022-11-30T02:32:08.754Z,6.58
2022-11-30T02:34:37.504Z,6.57
2022-11-30T02:37:05.525Z,6.59
2022-11-30T02:39:32.341Z,6.60
2022-11-30T02:41:59.156Z,6.63
2022-11-30T02:44:26.630Z,6.59
2022-11-30T02:47:12.183Z,6.58
2022-11-30T02:49:46.502Z,6.58
2022-11-30T02:52:14.567Z,6.58
2022-11-30T02:54:41.561Z,6.57
2022-11-30T02:57:08.401Z,6.56
2022-11-30T02:59:35.474Z,6.60
2022-11-30T03:02:02.294Z,6.59
2022-11-30T03:04:29.061Z,6.59
2022-11-30T03:06:55.890Z,6.60
2022-11-30T03:09:22.695Z,6.62
2022-11-30T03:11:49.540Z,6.67
2022-11-30T03:14:16.325Z,6.66
2022-11-30T03:16:43.139Z,6.66
2022-11-30T03:19:10.910Z,6.63
2022-11-30T03:21:37.701Z,6.64
2022-11-30T03:24:04.613Z,6.68
2022-11-30T03:26:31.390Z,6.68
2022-11-30T03:28:58.196Z,6.70
2022-11-30T03:31:25.042Z,6.69
2022-11-30T03:33:51.836Z,6.68
2022-11-30T03:36:18.642Z,6.67
2022-11-30T03:38:45.487Z,6.71
2022-11-30T03:41:13.120Z,6.70
2022-11-30T03:43:40.225Z,6.68
2022-11-30T03:46:07.095Z,6.68
2022-11-30T03:48:33.898Z,6.68
2022-11-30T03:51:00.681Z,6.68
2022-11-30T03:53:27.509Z,6.68
2022-11-30T03:56:14.539Z,6.70
2022-11-30T03:58:41.318Z,6.73
2022-11-30T04:01:09.744Z,6.73
2022-11-30T04:03:37.150Z,6.71
2022-11-30T04:06:04.762Z,6.73
2022-11-30T04:08:31.586Z,6.71
2022-11-30T04:10:59.236Z,6.73
2022-11-30T04:13:26.686Z,6.73
2022-11-30T04:15:54.026Z,6.74
2022-11-30T04:18:22.304Z,6.78
2022-11-30T04:20:55.896Z,6.80
2022-11-30T04:23:23.562Z,6.79
2022-11-30T04:25:50.421Z,6.81
2022-11-30T04:28:17.834Z,6.82
2022-11-30T04:30:44.780Z,6.83
2022-11-30T04:33:12.094Z,6.80
2022-11-30T04:35:43.465Z,6.79
2022-11-30T04:38:10.257Z,6.80
2022-11-30T04:40:43.295Z,6.82
2022-11-30T04:43:10.853Z,6.86
2022-11-30T04:45:37.748Z,6.85
2022-11-30T04:48:04.747Z,6.85
2022-11-30T04:50:31.681Z,6.84
2022-11-30T04:52:58.506Z,6.86
2022-11-30T04:55:25.319Z,6.86
2022-11-30T04:57:52.313Z,6.87
2022-11-30T05:00:19.272Z,6.85
2022-11-30T05:02:52.219Z,6.84
2022-11-30T05:05:20.050Z,6.84
2022-11-30T05:07:56.834Z,6.83
2022-11-30T05:10:24.154Z,6.81
2022-11-30T05:12:51.083Z,6.84
2022-11-30T05:15:17.901Z,6.85
2022-11-30T05:17:44.745Z,6.87
2022-11-30T05:20:11.827Z,6.83
2022-11-30T05:22:38.682Z,6.86
2022-11-30T05:25:05.772Z,6.84
2022-11-30T05:27:32.594Z,6.85
2022-11-30T05:29:59.362Z,6.82
2022-11-30T05:32:26.347Z,6.84
2022-11-30T05:34:53.703Z,6.82
2022-11-30T05:37:20.742Z,6.84
2022-11-30T05:39:47.518Z,6.77
2022-11-30T05:42:14.338Z,6.69
2022-11-30T05:44:41.127Z,6.70
2022-11-30T05:47:07.994Z,6.66
2022-11-30T05:49:34.887Z,6.58
2022-11-30T05:52:01.714Z,6.60
2022-11-30T05:54:28.497Z,6.60
2022-11-30T05:56:55.538Z,6.60
2022-11-30T05:59:22.832Z,6.55
2022-11-30T06:01:51.457Z,6.52
2022-11-30T06:04:18.496Z,6.55
2022-11-30T06:06:45.339Z,6.55
2022-11-30T06:09:12.185Z,6.52
2022-11-30T06:11:38.998Z,6.52
2022-11-30T06:14:06.807Z,6.57
2022-11-30T06:16:33.696Z,6.56
2022-11-30T06:19:00.500Z,6.53
2022-11-30T06:21:27.272Z,6.54
2022-11-30T06:23:54.230Z,6.50
2022-11-30T06:26:21.191Z,6.54
2022-11-30T06:28:48.875Z,6.53
2022-11-30T06:31:17.081Z,6.53
2022-11-30T06:33:43.944Z,6.48
2022-11-30T06:36:10.781Z,6.50
2022-11-30T06:38:37.644Z,6.50
2022-11-30T06:41:09.330Z,6.48
2022-11-30T06:43:36.827Z,6.40
2022-11-30T06:46:04.316Z,6.43
2022-11-30T06:48:31.354Z,6.40
2022-11-30T06:50:58.522Z,6.38
2022-11-30T06:53:25.502Z,6.33
2022-11-30T06:55:52.420Z,6.20
2022-11-30T06:58:19.208Z,6.18
2022-11-30T07:00:46.081Z,6.10
2022-11-30T07:03:13.009Z,6.03
2022-11-30T07:05:42.054Z,5.96
2022-11-30T07:08:08.835Z,6.04
2022-11-30T07:10:39.094Z,5.99
2022-11-30T07:13:05.906Z,5.96
2022-11-30T07:15:32.940Z,5.99
2022-11-30T07:18:02.544Z,5.96
2022-11-30T07:20:29.371Z,5.98
2022-11-30T07:22:56.352Z,6.04
2022-11-30T07:25:23.155Z,6.05
2022-11-30T07:27:49.958Z,6.17
2022-11-30T07:30:16.908Z,6.22
2022-11-30T07:32:43.743Z,6.27
2022-11-30T07:35:10.518Z,6.26
2022-11-30T07:37:37.344Z,6.33
2022-11-30T07:40:04.751Z,6.32
2022-11-30T07:42:31.510Z,6.31
2022-11-30T07:44:59.309Z,6.38
2022-11-30T07:47:26.702Z,6.37
2022-11-30T07:49:53.534Z,6.41
2022-11-30T07:52:20.312Z,6.42
2022-11-30T07:54:47.317Z,6.40
2022-11-30T07:57:14.338Z,6.40
2022-11-30T07:59:41.113Z,6.42
2022-11-30T08:02:10.273Z,6.36
2022-11-30T08:04:37.232Z,6.32
2022-11-30T08:07:04.010Z,6.34
2022-11-30T08:09:30.807Z,6.35
2022-11-30T08:11:57.587Z,6.42
2022-11-30T08:14:24.385Z,6.45
2022-11-30T08:16:51.315Z,6.46
2022-11-30T08:19:18.107Z,6.52
2022-11-30T08:21:44.927Z,6.56
2022-11-30T08:24:11.986Z,6.63
2022-11-30T08:26:38.854Z,6.70
2022-11-30T08:29:05.638Z,6.64
2022-11-30T08:31:34.156Z,6.65
2022-11-30T08:34:07.934Z,6.73
2022-11-30T08:36:34.997Z,6.81
2022-11-30T08:39:02.705Z,6.92
2022-11-30T08:41:29.559Z,6.94
2022-11-30T08:43:56.354Z,6.93
2022-11-30T08:49:26.044Z,6.95
2022-11-30T08:52:16.390Z,6.96
2022-11-30T08:54:44.334Z,7.03
2022-11-30T08:57:11.275Z,7.08
2022-11-30T08:59:38.091Z,7.16
2022-11-30T09:02:04.987Z,7.24
2022-11-30T09:04:31.803Z,7.34
2022-11-30T09:06:58.586Z,7.46
2022-11-30T09:09:26.392Z,7.55
2022-11-30T09:11:53.349Z,7.64
2022-11-30T09:14:20.156Z,7.73
2022-11-30T09:16:48.351Z,7.79
2022-11-30T09:19:15.232Z,7.82
2022-11-30T09:21:45.431Z,7.79
2022-11-30T09:24:16.658Z,7.81
2022-11-30T09:26:43.465Z,7.74
2022-11-30T09:29:10.286Z,7.81
2022-11-30T09:31:37.127Z,7.71
2022-11-30T09:34:03.917Z,7.76
2022-11-30T09:36:30.749Z,7.83
2022-11-30T09:38:57.552Z,7.92
2022-11-30T09:41:43.280Z,7.86
2022-11-30T09:44:13.075Z,7.90
2022-11-30T09:46:43.116Z,7.91
2022-11-30T09:49:16.323Z,7.89
2022-11-30T09:51:45.081Z,7.89
2022-11-30T09:54:13.654Z,7.90
2022-11-30T09:56:42.336Z,7.91
2022-11-30T09:59:18.263Z,7.89
2022-11-30T10:01:46.448Z,7.94
2022-11-30T10:04:22.149Z,7.92
2022-11-30T10:06:48.905Z,7.96
2022-11-30T10:09:15.704Z,8.09
2022-11-30T10:11:55.253Z,8.18
2022-11-30T10:14:36.911Z,8.15
2022-11-30T10:17:15.719Z,8.16
2022-11-30T10:19:42.505Z,8.13
2022-11-30T10:22:28.036Z,8.06
2022-11-30T10:24:54.802Z,8.01
2022-11-30T10:27:27.655Z,8.02
2022-11-30T10:29:55.385Z,8.10
2022-11-30T10:32:32.270Z,8.19
2022-11-30T10:35:03.387Z,8.23
2022-11-30T10:37:37.285Z,8.24
2022-11-30T10:40:13.395Z,8.26
2022-11-30T10:43:06.798Z,8.22
2022-11-30T10:45:34.038Z,8.12
2022-11-30T10:48:04.847Z,8.19
2022-11-30T10:50:31.738Z,8.07
2022-11-30T10:52:59.819Z,8.13
2022-11-30T10:55:29.013Z,8.14
2022-11-30T10:57:59.409Z,8.19
2022-11-30T11:00:26.238Z,8.33
2022-11-30T11:02:53.092Z,8.39
2022-11-30T11:05:19.940Z,8.44
2022-11-30T11:07:55.220Z,8.46
2022-11-30T11:10:31.068Z,8.45
2022-11-30T11:12:58.129Z,8.53
2022-11-30T11:15:26.105Z,8.38
2022-11-30T11:17:53.674Z,8.51
2022-11-30T11:20:37.216Z,8.55
2022-11-30T11:23:04.516Z,8.59
2022-11-30T11:25:32.753Z,8.71
2022-11-30T11:28:03.359Z,8.65
2022-11-30T11:30:31.403Z,8.63
2022-11-30T11:33:13.529Z,8.53
2022-11-30T11:35:46.068Z,8.62
2022-11-30T11:38:29.267Z,8.62
2022-11-30T11:40:58.922Z,8.70
2022-11-30T11:43:27.927Z,8.77
2022-11-30T11:45:56.563Z,8.89
2022-11-30T11:48:31.850Z,8.92
2022-11-30T11:51:21.651Z,8.92
2022-11-30T11:53:54.752Z,8.87
2022-11-30T11:56:29.049Z,8.76
2022-11-30T11:59:14.779Z,8.77
2022-11-30T12:01:57.232Z,8.71
2022-11-30T12:04:24.029Z,8.67
2022-11-30T12:06:53.241Z,8.54
2022-11-30T12:09:26.820Z,8.74
2022-11-30T12:11:53.711Z,8.86
2022-11-30T12:14:20.533Z,8.94
2022-11-30T12:16:58.760Z,8.99
2022-11-30T12:19:42.181Z,9.03
2022-11-30T12:22:18.662Z,8.98
2022-11-30T12:24:45.453Z,8.96
2022-11-30T12:27:34.838Z,8.95
2022-11-30T12:30:22.249Z,9.01
2022-11-30T12:32:55.153Z,9.09
2022-11-30T12:35:25.026Z,9.17
2022-11-30T12:38:00.966Z,9.09
2022-11-30T12:40:30.723Z,8.92
2022-11-30T12:43:21.744Z,9.00
2022-11-30T12:45:49.178Z,9.01
2022-11-30T12:48:28.598Z,8.88
2022-11-30T12:50:55.472Z,8.78
2022-11-30T12:53:28.368Z,8.79
2022-11-30T12:56:04.328Z,8.80
2022-11-30T12:58:40.033Z,8.77
2022-11-30T13:01:12.779Z,8.79
2022-11-30T13:03:44.852Z,8.68
2022-11-30T13:06:17.063Z,8.67
2022-11-30T13:08:52.911Z,8.69
2022-11-30T13:11:27.200Z,8.65
2022-11-30T13:13:56.722Z,8.65
2022-11-30T13:16:24.589Z,8.53
2022-11-30T13:18:52.525Z,8.53
2022-11-30T13:21:30.185Z,8.44
2022-11-30T13:24:06.338Z,8.42
2022-11-30T13:26:43.850Z,8.40
2022-11-30T13:29:16.864Z,8.35
2022-11-30T13:31:50.795Z,8.34
2022-11-30T13:34:25.032Z,8.23
2022-11-30T13:36:59.210Z,8.28
2022-11-30T13:39:27.245Z,8.27
2022-11-30T13:42:12.868Z,8.22
2022-11-30T13:44:40.974Z,8.23
2022-11-30T13:47:27.597Z,8.25
2022-11-30T13:50:17.439Z,8.20
2022-11-30T13:53:02.577Z,8.24
2022-11-30T13:55:35.353Z,8.18
2022-11-30T13:58:04.554Z,8.18
2022-11-30T14:00:31.403Z,8.18
2022-11-30T14:06:05.245Z,8.12
2022-11-30T14:08:33.814Z,8.10
2022-11-30T14:11:18.997Z,8.04
2022-11-30T14:13:45.777Z,8.04
2022-11-30T14:16:23.631Z,8.05
2022-11-30T14:18:50.809Z,8.03
2022-11-30T14:21:30.270Z,8.01
2022-11-30T14:24:00.183Z,8.04
2022-11-30T14:26:46.887Z,7.99
2022-11-30T14:29:29.784Z,8.02
2022-11-30T14:32:02.843Z,7.97
2022-11-30T14:34:37.672Z,7.93
2022-11-30T14:37:23.686Z,8.00
2022-11-30T14:39:51.192Z,7.94
2022-11-30T14:42:20.780Z,7.91
2022-11-30T14:44:47.934Z,7.90
2022-11-30T14:47:29.381Z,7.92
2022-11-30T14:49:56.891Z,7.88
2022-11-30T14:52:32.287Z,7.88
2022-11-30T14:55:09.043Z,7.86
2022-11-30T14:57:44.507Z,7.80
2022-11-30T15:00:18.570Z,7.80
2022-11-30T15:02:46.903Z,7.77
2022-11-30T15:05:17.694Z,7.74
2022-11-30T15:07:45.240Z,7.70
2022-11-30T15:10:28.063Z,7.71
2022-11-30T15:12:56.809Z,7.66
2022-11-30T15:15:24.665Z,7.65
2022-11-30T15:17:56.141Z,7.66
2022-11-30T15:20:24.782Z,7.62
2022-11-30T15:22:52.581Z,7.61
2022-11-30T15:25:20.522Z,7.52
2022-11-30T15:27:47.535Z,7.50
2022-11-30T15:30:15.709Z,7.48
2022-11-30T15:32:46.938Z,7.42
2022-11-30T15:35:21.324Z,7.39
2022-11-30T15:37:48.435Z,7.33
2022-11-30T15:40:16.830Z,7.32
2022-11-30T15:42:46.905Z,7.36
2022-11-30T15:45:16.471Z,7.32
2022-11-30T15:47:43.234Z,7.33
2022-11-30T15:50:28.257Z,7.32
2022-11-30T15:52:55.902Z,7.22
2022-11-30T15:55:41.432Z,7.25
2022-11-30T15:58:23.998Z,7.18
2022-11-30T16:01:00.009Z,7.18
2022-11-30T16:03:26.890Z,7.15
2022-11-30T16:05:57.270Z,7.16
2022-11-30T16:08:24.461Z,7.11
2022-11-30T16:10:51.344Z,7.08
2022-11-30T16:13:19.959Z,7.07
2022-11-30T16:15:48.465Z,7.10
2022-11-30T16:18:16.996Z,7.13
2022-11-30T16:20:44.759Z,7.09
2022-11-30T16:23:15.143Z,7.10
2022-11-30T16:25:42.637Z,7.11
2022-11-30T16:28:13.353Z,7.19
2022-11-30T16:30:40.965Z,7.19
2022-11-30T16:33:18.429Z,7.19
2022-11-30T16:36:00.117Z,7.15
2022-11-30T16:38:27.876Z,7.11
2022-11-30T16:40:55.355Z,6.98
2022-11-30T16:43:22.839Z,6.98
2022-11-30T16:45:49.697Z,6.88
2022-11-30T16:48:17.117Z,6.89
2022-11-30T16:50:44.055Z,6.83
2022-11-30T16:53:12.770Z,6.87
2022-11-30T16:55:39.577Z,6.87
2022-11-30T16:58:06.566Z,6.83
2022-11-30T17:00:35.335Z,6.86
2022-11-30T17:03:08.031Z,6.81
2022-11-30T17:05:35.803Z,6.82
2022-11-30T17:08:02.755Z,6.86
2022-11-30T17:10:29.667Z,6.87
2022-11-30T17:12:56.500Z,6.88
2022-11-30T17:15:23.878Z,6.87
2022-11-30T17:17:50.689Z,6.93
2022-11-30T17:20:17.826Z,6.96
2022-11-30T17:22:44.701Z,6.95
2022-11-30T17:25:14.054Z,6.88
2022-11-30T17:27:40.937Z,6.88
2022-11-30T17:30:07.996Z,6.87
2022-11-30T17:32:35.203Z,6.88
2022-11-30T17:35:03.058Z,6.81
2022-11-30T17:37:29.873Z,6.74
2022-11-30T17:39:56.815Z,6.79
2022-11-30T17:42:23.705Z,6.82
2022-11-30T17:44:50.707Z,6.80
2022-11-30T17:47:17.785Z,6.79
2022-11-30T17:49:44.580Z,6.77
2022-11-30T17:52:11.375Z,6.75
2022-11-30T17:54:38.155Z,6.73
2022-11-30T17:57:04.946Z,6.75
2022-11-30T17:59:31.857Z,6.76
2022-11-30T18:01:58.680Z,6.71
2022-11-30T18:04:25.511Z,6.68
2022-11-30T18:06:52.414Z,6.68
2022-11-30T18:09:19.239Z,6.63
2022-11-30T18:11:46.036Z,6.62
2022-11-30T18:14:12.905Z,6.66
2022-11-30T18:16:39.827Z,6.64
2022-11-30T18:19:06.781Z,6.57
2022-11-30T18:21:33.591Z,6.62
2022-11-30T18:24:00.367Z,6.59
2022-11-30T18:26:27.239Z,6.58
2022-11-30T18:28:57.995Z,6.56
2022-11-30T18:31:25.788Z,6.59
2022-11-30T18:34:03.167Z,6.60
2022-11-30T18:36:30.416Z,6.60
2022-11-30T18:38:57.578Z,6.59
2022-11-30T18:41:24.652Z,6.59
2022-11-30T18:43:54.450Z,6.58
2022-11-30T18:46:21.299Z,6.57
2022-11-30T18:48:48.920Z,6.50
2022-11-30T18:51:17.076Z,6.46
2022-11-30T18:53:44.003Z,6.53
2022-11-30T18:56:15.426Z,6.56
2022-11-30T18:58:42.636Z,6.55
2022-11-30T19:01:14.558Z,6.59
2022-11-30T19:03:41.478Z,6.60
2022-11-30T19:06:08.760Z,6.59
2022-11-30T19:08:35.950Z,6.59
2022-11-30T19:11:05.306Z,6.62
2022-11-30T19:13:32.854Z,6.57
2022-11-30T19:16:07.517Z,6.55
2022-11-30T19:18:34.467Z,6.56
2022-11-30T19:21:01.687Z,6.55
2022-11-30T19:23:28.497Z,6.55
2022-11-30T19:25:59.115Z,6.55
2022-11-30T19:28:28.180Z,6.60
2022-11-30T19:30:55.093Z,6.58
2022-11-30T19:33:21.992Z,6.61
2022-11-30T19:35:48.769Z,6.62
2022-11-30T19:38:15.581Z,6.67
2022-11-30T19:40:42.431Z,6.67
2022-11-30T19:43:09.219Z,6.72
2022-11-30T19:45:36.033Z,6.68
2022-11-30T19:48:02.929Z,6.65
2022-11-30T19:50:29.709Z,6.67
2022-11-30T19:52:57.016Z,6.66
2022-11-30T19:55:23.822Z,6.62
2022-11-30T19:57:50.693Z,6.62
2022-11-30T20:00:17.684Z,6.65
2022-11-30T20:02:44.586Z,6.62
2022-11-30T20:05:11.397Z,6.66
2022-11-30T20:07:38.206Z,6.67
2022-11-30T20:10:05.189Z,6.64
2022-11-30T20:12:32.067Z,6.64
2022-11-30T20:14:58.904Z,6.65
2022-11-30T20:17:25.698Z,6.65
2022-11-30T20:19:52.509Z,6.65
2022-11-30T20:22:19.319Z,6.63
2022-11-30T20:24:46.332Z,6.66
2022-11-30T20:27:13.306Z,6.66
2022-11-30T20:29:40.285Z,6.62
2022-11-30T20:32:07.128Z,6.59
2022-11-30T20:34:38.599Z,6.61
2022-11-30T20:37:07.854Z,6.66
2022-11-30T20:39:34.666Z,6.68
2022-11-30T20:42:01.563Z,6.67
2022-11-30T20:44:28.431Z,6.67
2022-11-30T20:46:55.259Z,6.61
2022-11-30T20:49:22.066Z,6.56
2022-11-30T20:51:48.891Z,6.49
2022-11-30T20:54:16.243Z,6.44
2022-11-30T20:56:43.596Z,6.42
2022-11-30T20:59:16.472Z,6.33
2022-11-30T21:01:44.558Z,6.37
2022-11-30T21:04:14.152Z,6.36
2022-11-30T21:06:41.182Z,6.32
2022-11-30T21:09:08.009Z,6.28
2022-11-30T21:11:34.812Z,6.28
2022-11-30T21:14:01.632Z,6.21
2022-11-30T21:16:29.264Z,6.23
2022-11-30T21:18:57.840Z,6.22
2022-11-30T21:21:25.700Z,6.20
2022-11-30T21:23:54.423Z,6.17
2022-11-30T21:26:22.699Z,6.16
2022-11-30T21:28:51.736Z,6.14
2022-11-30T21:31:18.679Z,6.09
2022-11-30T21:33:52.865Z,6.08
2022-11-30T21:36:21.451Z,6.08
2022-11-30T21:38:52.404Z,6.11
2022-11-30T21:41:19.312Z,6.07
2022-11-30T21:43:46.168Z,6.05
2022-11-30T21:46:15.540Z,6.00
2022-11-30T21:48:44.594Z,5.99
2022-11-30T21:51:12.799Z,5.98
2022-11-30T21:53:40.910Z,5.96
2022-11-30T21:56:09.138Z,6.01
2022-11-30T21:58:35.911Z,6.04
2022-11-30T22:01:02.770Z,6.02
2022-11-30T22:03:29.843Z,5.90
2022-11-30T22:05:57.506Z,5.90
2022-11-30T22:08:24.297Z,5.84
2022-11-30T22:10:51.119Z,5.85
2022-11-30T22:13:17.903Z,5.85
2022-11-30T22:15:44.802Z,5.87
2022-11-30T22:18:11.600Z,5.84
2022-11-30T22:20:38.479Z,5.87
2022-11-30T22:23:05.255Z,5.82
2022-11-30T22:25:32.115Z,5.84
2022-11-30T22:27:58.926Z,5.80
2022-11-30T22:30:25.746Z,5.85
2022-11-30T22:32:52.615Z,5.90
2022-11-30T22:35:19.420Z,5.90
2022-11-30T22:37:46.255Z,5.93
2022-11-30T22:40:13.307Z,5.81
2022-11-30T22:42:40.091Z,5.80
2022-11-30T22:45:07.328Z,5.71
2022-11-30T22:47:34.151Z,5.75
2022-11-30T22:50:01.020Z,5.73
2022-11-30T22:52:48.199Z,5.70
2022-11-30T22:55:14.774Z,5.71
2022-11-30T22:57:41.732Z,5.51
2022-11-30T23:00:09.165Z,5.54
2022-11-30T23:02:36.169Z,5.46
2022-11-30T23:05:03.375Z,5.51
2022-11-30T23:07:32.172Z,5.39
2022-11-30T23:09:59.257Z,5.31
2022-11-30T23:12:57.380Z,5.31
2022-11-30T23:15:12.853Z,5.22
2022-11-30T23:17:39.763Z,5.18
2022-11-30T23:20:06.844Z,5.08
2022-11-30T23:22:35.237Z,5.01
2022-11-30T23:25:02.031Z,5.00
2022-11-30T23:27:28.817Z,4.98
2022-11-30T23:29:55.645Z,4.99
2022-11-30T23:32:22.569Z,4.92
2022-11-30T23:34:50.755Z,4.91
2022-11-30T23:37:17.884Z,4.89
2022-11-30T23:39:44.674Z,4.96
2022-11-30T23:42:11.676Z,4.98
2022-11-30T23:44:38.462Z,4.93
2022-11-30T23:47:05.450Z,4.93
2022-11-30T23:49:32.261Z,4.91
2022-11-30T23:51:59.061Z,4.91
2022-11-30T23:54:25.878Z,4.91
2022-11-30T23:56:52.650Z,4.87
2022-11-30T23:59:19.507Z,4.88
